Peninsula — CUWL — position and weather

sailwx.info

Track history (hours):
 
Tides and Currents Weather Stations Pressure Air Temp Water Temp Dewpoint Dewpoint Depression Visibility Wind Speed Wind Dir Waves Ship Positions

Peninsula

Last reported at 2017-Dec-16 02:48 UTC. Time now 2017-Dec-17 12:12 UTC.
Position N 41°10' W 008°47'.

Length 33 m; draft 3.5 m.

Type: Fishing. MMSI: 263435000.

Date/timePositionNaut miles runAvg speedWind from/ knotsBaromVisibWave heightAir tempDewpointWater temp
2017-Dec-16 02:48N 41°10' W 008°47'310.3
2017-Dec-16 02:30N 41°10' W 008°43'1 2.1
2017-Dec-16 02:01N 41°11' W 008°42'0 0.0
2017-Dec-16 01:30N 41°11' W 008°42'0 0.0
2017-Dec-16 01:01N 41°11' W 008°42'0 0.0
2017-Dec-16 00:31N 41°11' W 008°42'0 0.0
2017-Dec-16 00:00N 41°11' W 008°42'0 0.0
2017-Dec-15 23:30N 41°11' W 008°42'0 0.0
2017-Dec-15 23:01N 41°11' W 008°42'0 0.0
2017-Dec-15 22:31N 41°11' W 008°42'0 0.0
2017-Dec-15 22:01N 41°11' W 008°42'0 0.0
2017-Dec-15 21:30N 41°11' W 008°42'0 0.0
2017-Dec-15 21:00N 41°11' W 008°42'0 0.0
2017-Dec-15 20:30N 41°11' W 008°42'0 0.0
2017-Dec-15 20:00N 41°11' W 008°42'0 0.0
2017-Dec-15 19:30N 41°11' W 008°42'0 0.0
2017-Dec-15 19:01N 41°11' W 008°42'0 0.0
2017-Dec-15 18:31N 41°11' W 008°42'0 0.0
2017-Dec-15 18:00N 41°11' W 008°42'0 0.0
2017-Dec-15 17:31N 41°11' W 008°42'0 0.0
2017-Dec-15 17:01N 41°11' W 008°42'0 0.0
2017-Dec-15 16:30N 41°11' W 008°42'0 0.0
2017-Dec-15 16:00N 41°11' W 008°42'1 2.3
2017-Dec-15 15:31N 41°10' W 008°43'1 0.1
2017-Dec-15 02:30N 41°11' W 008°44'2 1.2
2017-Dec-15 01:00N 41°11' W 008°42'0 0.0
2017-Dec-15 00:30N 41°11' W 008°42'0 0.0
2017-Dec-14 18:30N 41°11' W 008°42'0 0.0
2017-Dec-14 18:00N 41°11' W 008°42'0 0.0
2017-Dec-14 17:30N 41°11' W 008°42'0 0.1
2017-Dec-14 17:01N 41°11' W 008°42'2 0.2
2017-Dec-14 02:20N 41°11' W 008°45'2 7.6
2017-Dec-14 02:00N 41°11' W 008°42'0 0.0
2017-Dec-14 01:30N 41°11' W 008°42'0 0.0
2017-Dec-14 01:00N 41°11' W 008°42'0 0.0
2017-Dec-14 00:30N 41°11' W 008°42'0 0.0
2017-Dec-14 00:00N 41°11' W 008°42'0 0.0
2017-Dec-13 23:30N 41°11' W 008°42'0 0.0
2017-Dec-13 23:00N 41°11' W 008°42'0 0.0
2017-Dec-13 22:30N 41°11' W 008°42'0 0.0
2017-Dec-13 22:00N 41°11' W 008°42'0 0.0
2017-Dec-13 21:30N 41°11' W 008°42'0 0.0
2017-Dec-13 21:00N 41°11' W 008°42'0 0.0
2017-Dec-13 20:30N 41°11' W 008°42'0 0.0
2017-Dec-13 20:00N 41°11' W 008°42'0 0.0
2017-Dec-13 19:30N 41°11' W 008°42'0 0.0
2017-Dec-13 19:00N 41°11' W 008°42'0 0.0
2017-Dec-13 18:30N 41°11' W 008°42'0 0.0
2017-Dec-13 18:00N 41°11' W 008°42'0 0.0
2017-Dec-13 17:30N 41°11' W 008°42'1 1.3
2017-Dec-13 17:00N 41°10' W 008°42'4 0.3
2017-Dec-13 02:57N 41°12' W 008°48'4 9.5
2017-Dec-13 02:30N 41°11' W 008°42'0 0.8
2017-Dec-13 02:00N 41°11' W 008°42'0 0.0
2017-Dec-13 01:30N 41°11' W 008°42'0 0.0
2017-Dec-13 01:00N 41°11' W 008°42'0 0.0
2017-Dec-13 00:30N 41°11' W 008°42'0 0.0
2017-Dec-13 00:00N 41°11' W 008°42'0 0.0
2017-Dec-12 23:30N 41°11' W 008°42'0 0.0
2017-Dec-12 23:00N 41°11' W 008°42'0 0.0
2017-Dec-12 22:30N 41°11' W 008°42'0 0.0
2017-Dec-12 22:00N 41°11' W 008°42'0 0.0
2017-Dec-12 21:30N 41°11' W 008°42'0 0.0
2017-Dec-12 21:00N 41°11' W 008°42'0 0.0
2017-Dec-12 20:30N 41°11' W 008°42'0 0.0
2017-Dec-12 20:00N 41°11' W 008°42'0 0.0
2017-Dec-12 19:30N 41°11' W 008°42'0 0.0
2017-Dec-12 19:00N 41°11' W 008°42'0 0.0
2017-Dec-12 18:30N 41°11' W 008°42'0 0.0
2017-Dec-12 18:00N 41°11' W 008°42'0 0.0
2017-Dec-12 17:30N 41°11' W 008°42'3 5.5
2017-Dec-12 17:00N 41°12' W 008°46'1 0.1
2017-Dec-12 03:47N 41°12' W 008°47'3 9.3
2017-Dec-12 03:30N 41°11' W 008°44'1 2.5
2017-Dec-12 03:00N 41°11' W 008°42'0 0.0
2017-Dec-12 02:30N 41°11' W 008°42'0 0.0
2017-Dec-12 02:00N 41°11' W 008°42'0 0.0
2017-Dec-12 01:30N 41°11' W 008°42'0 0.0
2017-Dec-12 01:00N 41°11' W 008°42'0 0.0
2017-Dec-12 00:30N 41°11' W 008°42'0 0.0
2017-Dec-12 00:00N 41°11' W 008°42'0 0.0
2017-Dec-11 23:30N 41°11' W 008°42'0 0.0
2017-Dec-11 23:00N 41°11' W 008°42'0 0.0
2017-Dec-11 22:30N 41°11' W 008°42'0 0.0
2017-Dec-11 22:00N 41°11' W 008°42'0 0.0
2017-Dec-11 21:30N 41°11' W 008°42'0 0.0
2017-Dec-11 21:00N 41°11' W 008°42'0 0.0
2017-Dec-11 20:30N 41°11' W 008°42'0 0.0
2017-Dec-11 20:00N 41°11' W 008°42'0 0.0
2017-Dec-11 19:30N 41°11' W 008°42'0 0.0
2017-Dec-11 19:00N 41°11' W 008°42'0 0.0
2017-Dec-11 18:30N 41°11' W 008°42'0 0.0
2017-Dec-11 18:00N 41°11' W 008°42'0 0.0
2017-Dec-11 17:30N 41°11' W 008°42'0 0.0
2017-Dec-11 17:00N 41°11' W 008°42'0 0.0
2017-Dec-11 16:30N 41°11' W 008°42'0 0.0
2017-Dec-11 16:00N 41°11' W 008°42'0 0.0
2017-Dec-11 15:30N 41°11' W 008°42'0 0.0
2017-Dec-11 15:00N 41°11' W 008°42'0 0.0
2017-Dec-11 14:30N 41°11' W 008°42'0 0.0
2017-Dec-11 14:00N 41°11' W 008°42'0 0.0
2017-Dec-11 13:30N 41°11' W 008°42'0 0.0
2017-Dec-11 13:00N 41°11' W 008°42'0 0.0
2017-Dec-11 12:30N 41°11' W 008°42'0 0.0
2017-Dec-11 12:00N 41°11' W 008°42'0 0.0
2017-Dec-11 11:30N 41°11' W 008°42'0 0.0
2017-Dec-11 11:00N 41°11' W 008°42'0 0.0
2017-Dec-11 10:30N 41°11' W 008°42'0 0.0
2017-Dec-11 10:00N 41°11' W 008°42'0 0.0
2017-Dec-11 09:30N 41°11' W 008°42'0 0.0
2017-Dec-11 09:00N 41°11' W 008°42'0 0.0
2017-Dec-11 08:30N 41°11' W 008°42'0 0.0
2017-Dec-11 08:00N 41°11' W 008°42'0 0.0
2017-Dec-11 07:30N 41°11' W 008°42'0 0.0
2017-Dec-11 07:00N 41°11' W 008°42'0 0.0
2017-Dec-11 02:55N 41°11' W 008°42'0 0.0
2017-Dec-11 02:30N 41°11' W 008°42'0 0.0
2017-Dec-11 02:00N 41°11' W 008°42'0 0.0
2017-Dec-11 01:30N 41°11' W 008°42'0 0.0
2017-Dec-11 01:00N 41°11' W 008°42'0 0.0
2017-Dec-11 00:30N 41°11' W 008°42'0 0.0
2017-Dec-11 00:00N 41°11' W 008°42'0 0.0
2017-Dec-10 23:30N 41°11' W 008°42'0 0.0
2017-Dec-10 23:00N 41°11' W 008°42'0 0.0
2017-Dec-10 22:30N 41°11' W 008°42'0 0.0
2017-Dec-10 22:00N 41°11' W 008°42'0 0.0
2017-Dec-10 21:30N 41°11' W 008°42'0 0.0
2017-Dec-10 21:00N 41°11' W 008°42'0 0.0
2017-Dec-10 20:30N 41°11' W 008°42'0 0.0
2017-Dec-10 20:00N 41°11' W 008°42'0 0.0
2017-Dec-10 19:30N 41°11' W 008°42'0 0.0
2017-Dec-10 19:00N 41°11' W 008°42'0 0.0
2017-Dec-10 18:30N 41°11' W 008°42'0 0.0
2017-Dec-10 18:00N 41°11' W 008°42'0 0.0
2017-Dec-10 17:30N 41°11' W 008°42'0 0.0
2017-Dec-10 17:00N 41°11' W 008°42'0 0.0
2017-Dec-10 16:30N 41°11' W 008°42'0 0.0
2017-Dec-10 16:00N 41°11' W 008°42'0 0.0
2017-Dec-10 15:30N 41°11' W 008°42'0 0.0
2017-Dec-10 15:00N 41°11' W 008°42'0 0.0
2017-Dec-10 14:30N 41°11' W 008°42'0 0.0
2017-Dec-10 14:00N 41°11' W 008°42'0 0.0
2017-Dec-10 13:30N 41°11' W 008°42'0 0.0
2017-Dec-10 13:00N 41°11' W 008°42'0 0.0
2017-Dec-10 12:30N 41°11' W 008°42'0 0.0
2017-Dec-10 12:00N 41°11' W 008°42'3 6.0
2017-Dec-10 11:30N 41°12' W 008°46'  
2017-Dec-08 02:44N 41°06' W 008°45'2 9.4
2017-Dec-08 02:30N 41°08' W 008°44'3 6.4
2017-Dec-08 02:00N 41°11' W 008°42'0 0.0
2017-Dec-08 01:30N 41°11' W 008°42'0 0.0
2017-Dec-08 01:00N 41°11' W 008°42'0 0.0
2017-Dec-08 00:30N 41°11' W 008°42'0 0.0
2017-Dec-08 00:00N 41°11' W 008°42'0 0.0
2017-Dec-07 23:30N 41°11' W 008°42'0 0.0
2017-Dec-07 23:00N 41°11' W 008°42'0 0.0
2017-Dec-07 22:30N 41°11' W 008°42'0 0.0
2017-Dec-07 22:00N 41°11' W 008°42'0 0.0
2017-Dec-07 21:30N 41°11' W 008°42'0 0.0
2017-Dec-07 21:00N 41°11' W 008°42'0 0.0
2017-Dec-07 20:30N 41°11' W 008°42'0 0.0
2017-Dec-07 20:00N 41°11' W 008°42'0 0.0
2017-Dec-07 19:30N 41°11' W 008°42'0 0.0
2017-Dec-07 19:00N 41°11' W 008°42'3 5.6
2017-Dec-07 18:30N 41°09' W 008°44'3 0.2
2017-Dec-07 01:34N 41°06' W 008°45'110.4
2017-Dec-07 01:30N 41°07' W 008°44'5 9.4
2017-Dec-07 01:00N 41°11' W 008°42'0 0.0
2017-Dec-07 00:30N 41°11' W 008°42'0 0.0
2017-Dec-07 00:00N 41°11' W 008°42'0 0.0
2017-Dec-06 23:30N 41°11' W 008°42'0 0.0
2017-Dec-06 23:00N 41°11' W 008°42'0 0.0
2017-Dec-06 22:30N 41°11' W 008°42'0 0.0
2017-Dec-06 22:00N 41°11' W 008°42'0 0.0
2017-Dec-06 21:30N 41°11' W 008°42'0 0.0
2017-Dec-06 21:00N 41°11' W 008°42'  
Track history (hours):
 
Tides and Currents Weather Stations Pressure Air Temp Water Temp Dewpoint Dewpoint Depression Visibility Wind Speed Wind Dir Waves Ship Positions

Peninsula

Last reported at 2017-Dec-16 02:48 UTC. Time now 2017-Dec-17 12:12 UTC.
Position N 41°10' W 008°47'.

Length 33 m; draft 3.5 m.

Type: Fishing. MMSI: 263435000.

Date/timePositionNaut miles runAvg speedWind from/ knotsBaromVisibWave heightAir tempDewpointWater temp
2017-Dec-16 02:48N 41°10' W 008°47'310.3
2017-Dec-16 02:30N 41°10' W 008°43'1 2.1
2017-Dec-16 02:01N 41°11' W 008°42'0 0.0
2017-Dec-16 01:30N 41°11' W 008°42'0 0.0
2017-Dec-16 01:01N 41°11' W 008°42'0 0.0
2017-Dec-16 00:31N 41°11' W 008°42'0 0.0
2017-Dec-16 00:00N 41°11' W 008°42'0 0.0
2017-Dec-15 23:30N 41°11' W 008°42'0 0.0
2017-Dec-15 23:01N 41°11' W 008°42'0 0.0
2017-Dec-15 22:31N 41°11' W 008°42'0 0.0
2017-Dec-15 22:01N 41°11' W 008°42'0 0.0
2017-Dec-15 21:30N 41°11' W 008°42'0 0.0
2017-Dec-15 21:00N 41°11' W 008°42'0 0.0
2017-Dec-15 20:30N 41°11' W 008°42'0 0.0
2017-Dec-15 20:00N 41°11' W 008°42'0 0.0
2017-Dec-15 19:30N 41°11' W 008°42'0 0.0
2017-Dec-15 19:01N 41°11' W 008°42'0 0.0
2017-Dec-15 18:31N 41°11' W 008°42'0 0.0
2017-Dec-15 18:00N 41°11' W 008°42'0 0.0
2017-Dec-15 17:31N 41°11' W 008°42'0 0.0
2017-Dec-15 17:01N 41°11' W 008°42'0 0.0
2017-Dec-15 16:30N 41°11' W 008°42'0 0.0
2017-Dec-15 16:00N 41°11' W 008°42'1 2.3
2017-Dec-15 15:31N 41°10' W 008°43'1 0.1
2017-Dec-15 02:30N 41°11' W 008°44'2 1.2
2017-Dec-15 01:00N 41°11' W 008°42'0 0.0
2017-Dec-15 00:30N 41°11' W 008°42'0 0.0
2017-Dec-14 18:30N 41°11' W 008°42'0 0.0
2017-Dec-14 18:00N 41°11' W 008°42'0 0.0
2017-Dec-14 17:30N 41°11' W 008°42'0 0.1
2017-Dec-14 17:01N 41°11' W 008°42'2 0.2
2017-Dec-14 02:20N 41°11' W 008°45'2 7.6
2017-Dec-14 02:00N 41°11' W 008°42'0 0.0
2017-Dec-14 01:30N 41°11' W 008°42'0 0.0
2017-Dec-14 01:00N 41°11' W 008°42'0 0.0
2017-Dec-14 00:30N 41°11' W 008°42'0 0.0
2017-Dec-14 00:00N 41°11' W 008°42'0 0.0
2017-Dec-13 23:30N 41°11' W 008°42'0 0.0
2017-Dec-13 23:00N 41°11' W 008°42'0 0.0
2017-Dec-13 22:30N 41°11' W 008°42'0 0.0
2017-Dec-13 22:00N 41°11' W 008°42'0 0.0
2017-Dec-13 21:30N 41°11' W 008°42'0 0.0
2017-Dec-13 21:00N 41°11' W 008°42'0 0.0
2017-Dec-13 20:30N 41°11' W 008°42'0 0.0
2017-Dec-13 20:00N 41°11' W 008°42'0 0.0
2017-Dec-13 19:30N 41°11' W 008°42'0 0.0
2017-Dec-13 19:00N 41°11' W 008°42'0 0.0
2017-Dec-13 18:30N 41°11' W 008°42'0 0.0
2017-Dec-13 18:00N 41°11' W 008°42'0 0.0
2017-Dec-13 17:30N 41°11' W 008°42'1 1.3
2017-Dec-13 17:00N 41°10' W 008°42'4 0.3
2017-Dec-13 02:57N 41°12' W 008°48'4 9.5
2017-Dec-13 02:30N 41°11' W 008°42'0 0.8
2017-Dec-13 02:00N 41°11' W 008°42'0 0.0
2017-Dec-13 01:30N 41°11' W 008°42'0 0.0
2017-Dec-13 01:00N 41°11' W 008°42'0 0.0
2017-Dec-13 00:30N 41°11' W 008°42'0 0.0
2017-Dec-13 00:00N 41°11' W 008°42'0 0.0
2017-Dec-12 23:30N 41°11' W 008°42'0 0.0
2017-Dec-12 23:00N 41°11' W 008°42'0 0.0
2017-Dec-12 22:30N 41°11' W 008°42'0 0.0
2017-Dec-12 22:00N 41°11' W 008°42'0 0.0
2017-Dec-12 21:30N 41°11' W 008°42'0 0.0
2017-Dec-12 21:00N 41°11' W 008°42'0 0.0
2017-Dec-12 20:30N 41°11' W 008°42'0 0.0
2017-Dec-12 20:00N 41°11' W 008°42'0 0.0
2017-Dec-12 19:30N 41°11' W 008°42'0 0.0
2017-Dec-12 19:00N 41°11' W 008°42'0 0.0
2017-Dec-12 18:30N 41°11' W 008°42'0 0.0
2017-Dec-12 18:00N 41°11' W 008°42'0 0.0
2017-Dec-12 17:30N 41°11' W 008°42'3 5.5
2017-Dec-12 17:00N 41°12' W 008°46'1 0.1
2017-Dec-12 03:47N 41°12' W 008°47'3 9.3
2017-Dec-12 03:30N 41°11' W 008°44'1 2.5
2017-Dec-12 03:00N 41°11' W 008°42'0 0.0
2017-Dec-12 02:30N 41°11' W 008°42'0 0.0
2017-Dec-12 02:00N 41°11' W 008°42'0 0.0
2017-Dec-12 01:30N 41°11' W 008°42'0 0.0
2017-Dec-12 01:00N 41°11' W 008°42'0 0.0
2017-Dec-12 00:30N 41°11' W 008°42'0 0.0
2017-Dec-12 00:00N 41°11' W 008°42'0 0.0
2017-Dec-11 23:30N 41°11' W 008°42'0 0.0
2017-Dec-11 23:00N 41°11' W 008°42'0 0.0
2017-Dec-11 22:30N 41°11' W 008°42'0 0.0
2017-Dec-11 22:00N 41°11' W 008°42'0 0.0
2017-Dec-11 21:30N 41°11' W 008°42'0 0.0
2017-Dec-11 21:00N 41°11' W 008°42'0 0.0
2017-Dec-11 20:30N 41°11' W 008°42'0 0.0
2017-Dec-11 20:00N 41°11' W 008°42'0 0.0
2017-Dec-11 19:30N 41°11' W 008°42'0 0.0
2017-Dec-11 19:00N 41°11' W 008°42'0 0.0
2017-Dec-11 18:30N 41°11' W 008°42'0 0.0
2017-Dec-11 18:00N 41°11' W 008°42'0 0.0
2017-Dec-11 17:30N 41°11' W 008°42'0 0.0
2017-Dec-11 17:00N 41°11' W 008°42'0 0.0
2017-Dec-11 16:30N 41°11' W 008°42'0 0.0
2017-Dec-11 16:00N 41°11' W 008°42'0 0.0
2017-Dec-11 15:30N 41°11' W 008°42'0 0.0
2017-Dec-11 15:00N 41°11' W 008°42'0 0.0
2017-Dec-11 14:30N 41°11' W 008°42'0 0.0
2017-Dec-11 14:00N 41°11' W 008°42'0 0.0
2017-Dec-11 13:30N 41°11' W 008°42'0 0.0
2017-Dec-11 13:00N 41°11' W 008°42'0 0.0
2017-Dec-11 12:30N 41°11' W 008°42'0 0.0
2017-Dec-11 12:00N 41°11' W 008°42'0 0.0
2017-Dec-11 11:30N 41°11' W 008°42'0 0.0
2017-Dec-11 11:00N 41°11' W 008°42'0 0.0
2017-Dec-11 10:30N 41°11' W 008°42'0 0.0
2017-Dec-11 10:00N 41°11' W 008°42'0 0.0
2017-Dec-11 09:30N 41°11' W 008°42'0 0.0
2017-Dec-11 09:00N 41°11' W 008°42'0 0.0
2017-Dec-11 08:30N 41°11' W 008°42'0 0.0
2017-Dec-11 08:00N 41°11' W 008°42'0 0.0
2017-Dec-11 07:30N 41°11' W 008°42'0 0.0
2017-Dec-11 07:00N 41°11' W 008°42'0 0.0
2017-Dec-11 02:55N 41°11' W 008°42'0 0.0
2017-Dec-11 02:30N 41°11' W 008°42'0 0.0
2017-Dec-11 02:00N 41°11' W 008°42'0 0.0
2017-Dec-11 01:30N 41°11' W 008°42'0 0.0
2017-Dec-11 01:00N 41°11' W 008°42'0 0.0
2017-Dec-11 00:30N 41°11' W 008°42'0 0.0
2017-Dec-11 00:00N 41°11' W 008°42'0 0.0
2017-Dec-10 23:30N 41°11' W 008°42'0 0.0
2017-Dec-10 23:00N 41°11' W 008°42'0 0.0
2017-Dec-10 22:30N 41°11' W 008°42'0 0.0
2017-Dec-10 22:00N 41°11' W 008°42'0 0.0
2017-Dec-10 21:30N 41°11' W 008°42'0 0.0
2017-Dec-10 21:00N 41°11' W 008°42'0 0.0
2017-Dec-10 20:30N 41°11' W 008°42'0 0.0
2017-Dec-10 20:00N 41°11' W 008°42'0 0.0
2017-Dec-10 19:30N 41°11' W 008°42'0 0.0
2017-Dec-10 19:00N 41°11' W 008°42'0 0.0
2017-Dec-10 18:30N 41°11' W 008°42'0 0.0
2017-Dec-10 18:00N 41°11' W 008°42'0 0.0
2017-Dec-10 17:30N 41°11' W 008°42'0 0.0
2017-Dec-10 17:00N 41°11' W 008°42'0 0.0
2017-Dec-10 16:30N 41°11' W 008°42'0 0.0
2017-Dec-10 16:00N 41°11' W 008°42'0 0.0
2017-Dec-10 15:30N 41°11' W 008°42'0 0.0
2017-Dec-10 15:00N 41°11' W 008°42'0 0.0
2017-Dec-10 14:30N 41°11' W 008°42'0 0.0
2017-Dec-10 14:00N 41°11' W 008°42'0 0.0
2017-Dec-10 13:30N 41°11' W 008°42'0 0.0
2017-Dec-10 13:00N 41°11' W 008°42'0 0.0
2017-Dec-10 12:30N 41°11' W 008°42'0 0.0
2017-Dec-10 12:00N 41°11' W 008°42'3 6.0
2017-Dec-10 11:30N 41°12' W 008°46'  
2017-Dec-08 02:44N 41°06' W 008°45'2 9.4
2017-Dec-08 02:30N 41°08' W 008°44'3 6.4
2017-Dec-08 02:00N 41°11' W 008°42'0 0.0
2017-Dec-08 01:30N 41°11' W 008°42'0 0.0
2017-Dec-08 01:00N 41°11' W 008°42'0 0.0
2017-Dec-08 00:30N 41°11' W 008°42'0 0.0
2017-Dec-08 00:00N 41°11' W 008°42'0 0.0
2017-Dec-07 23:30N 41°11' W 008°42'0 0.0
2017-Dec-07 23:00N 41°11' W 008°42'0 0.0
2017-Dec-07 22:30N 41°11' W 008°42'0 0.0
2017-Dec-07 22:00N 41°11' W 008°42'0 0.0
2017-Dec-07 21:30N 41°11' W 008°42'0 0.0
2017-Dec-07 21:00N 41°11' W 008°42'0 0.0
2017-Dec-07 20:30N 41°11' W 008°42'0 0.0
2017-Dec-07 20:00N 41°11' W 008°42'0 0.0
2017-Dec-07 19:30N 41°11' W 008°42'0 0.0
2017-Dec-07 19:00N 41°11' W 008°42'3 5.6
2017-Dec-07 18:30N 41°09' W 008°44'3 0.2
2017-Dec-07 01:34N 41°06' W 008°45'110.4
2017-Dec-07 01:30N 41°07' W 008°44'5 9.4
2017-Dec-07 01:00N 41°11' W 008°42'0 0.0
2017-Dec-07 00:30N 41°11' W 008°42'0 0.0
2017-Dec-07 00:00N 41°11' W 008°42'0 0.0
2017-Dec-06 23:30N 41°11' W 008°42'0 0.0
2017-Dec-06 23:00N 41°11' W 008°42'0 0.0
2017-Dec-06 22:30N 41°11' W 008°42'0 0.0
2017-Dec-06 22:00N 41°11' W 008°42'0 0.0
2017-Dec-06 21:30N 41°11' W 008°42'0 0.0
2017-Dec-06 21:00N 41°11' W 008°42'  

Dump ship's entire track history